sensor_id;sensor_type;location;lat;lon;timestamp;temperature;humidity
67899;DHT22;54699;51.796;10.956;2023-04-03T00:00:08;17.80;52.70
67899;DHT22;54699;51.796;10.956;2023-04-03T00:02:36;17.80;52.70
67899;DHT22;54699;51.796;10.956;2023-04-03T00:05:03;17.80;52.70
67899;DHT22;54699;51.796;10.956;2023-04-03T00:07:31;17.80;52.70
67899;DHT22;54699;51.796;10.956;2023-04-03T00:09:58;17.80;52.70
67899;DHT22;54699;51.796;10.956;2023-04-03T00:12:24;17.80;52.80
67899;DHT22;54699;51.796;10.956;2023-04-03T00:14:51;17.70;52.60
67899;DHT22;54699;51.796;10.956;2023-04-03T00:17:20;17.70;52.70
67899;DHT22;54699;51.796;10.956;2023-04-03T00:19:46;17.70;52.60
67899;DHT22;54699;51.796;10.956;2023-04-03T00:22:14;17.70;52.60
67899;DHT22;54699;51.796;10.956;2023-04-03T00:24:41;17.70;52.60
67899;DHT22;54699;51.796;10.956;2023-04-03T00:27:08;17.70;52.60
67899;DHT22;54699;51.796;10.956;2023-04-03T00:29:36;17.70;52.60
67899;DHT22;54699;51.796;10.956;2023-04-03T00:32:03;17.70;52.60
67899;DHT22;54699;51.796;10.956;2023-04-03T00:34:31;17.70;52.60
67899;DHT22;54699;51.796;10.956;2023-04-03T00:36:58;17.70;52.60
67899;DHT22;54699;51.796;10.956;2023-04-03T00:39:25;17.70;52.60
67899;DHT22;54699;51.796;10.956;2023-04-03T00:41:52;17.70;52.60
67899;DHT22;54699;51.796;10.956;2023-04-03T00:44:20;17.70;52.60
67899;DHT22;54699;51.796;10.956;2023-04-03T00:46:47;17.70;52.60
67899;DHT22;54699;51.796;10.956;2023-04-03T00:49:14;17.70;52.60
67899;DHT22;54699;51.796;10.956;2023-04-03T00:51:46;17.70;52.50
67899;DHT22;54699;51.796;10.956;2023-04-03T00:54:13;17.70;52.50
67899;DHT22;54699;51.796;10.956;2023-04-03T00:56:40;17.70;52.50
67899;DHT22;54699;51.796;10.956;2023-04-03T00:59:08;17.70;52.50
67899;DHT22;54699;51.796;10.956;2023-04-03T01:01:38;17.70;52.50
67899;DHT22;54699;51.796;10.956;2023-04-03T01:04:06;17.70;52.50
67899;DHT22;54699;51.796;10.956;2023-04-03T01:06:54;17.70;52.50
67899;DHT22;54699;51.796;10.956;2023-04-03T01:09:22;17.60;52.40
67899;DHT22;54699;51.796;10.956;2023-04-03T01:11:49;17.60;52.40
67899;DHT22;54699;51.796;10.956;2023-04-03T01:14:16;17.60;52.40
67899;DHT22;54699;51.796;10.956;2023-04-03T01:16:50;17.60;52.40
67899;DHT22;54699;51.796;10.956;2023-04-03T01:19:18;17.60;52.40
67899;DHT22;54699;51.796;10.956;2023-04-03T01:21:56;17.60;52.40
67899;DHT22;54699;51.796;10.956;2023-04-03T01:24:38;17.60;52.40
67899;DHT22;54699;51.796;10.956;2023-04-03T01:27:05;17.60;52.40
67899;DHT22;54699;51.796;10.956;2023-04-03T01:29:33;17.60;52.40
67899;DHT22;54699;51.796;10.956;2023-04-03T01:32:02;17.60;52.40
67899;DHT22;54699;51.796;10.956;2023-04-03T01:34:30;17.60;52.40
67899;DHT22;54699;51.796;10.956;2023-04-03T01:36:57;17.60;52.40
67899;DHT22;54699;51.796;10.956;2023-04-03T01:39:24;17.60;52.30
67899;DHT22;54699;51.796;10.956;2023-04-03T01:41:51;17.60;52.30
67899;DHT22;54699;51.796;10.956;2023-04-03T01:44:18;17.60;52.40
67899;DHT22;54699;51.796;10.956;2023-04-03T01:46:45;17.60;52.30
67899;DHT22;54699;51.796;10.956;2023-04-03T01:49:13;17.50;52.30
67899;DHT22;54699;51.796;10.956;2023-04-03T01:51:40;17.50;52.20
67899;DHT22;54699;51.796;10.956;2023-04-03T01:54:06;17.50;52.30
67899;DHT22;54699;51.796;10.956;2023-04-03T01:56:33;17.50;52.30
67899;DHT22;54699;51.796;10.956;2023-04-03T01:59:00;17.50;52.30
67899;DHT22;54699;51.796;10.956;2023-04-03T02:01:27;17.50;52.30
67899;DHT22;54699;51.796;10.956;2023-04-03T02:03:53;17.50;52.20
67899;DHT22;54699;51.796;10.956;2023-04-03T02:06:21;17.50;52.30
67899;DHT22;54699;51.796;10.956;2023-04-03T02:08:48;17.50;52.30
67899;DHT22;54699;51.796;10.956;2023-04-03T02:11:15;17.60;52.30
67899;DHT22;54699;51.796;10.956;2023-04-03T02:13:42;17.50;52.20
67899;DHT22;54699;51.796;10.956;2023-04-03T02:16:09;17.50;52.20
67899;DHT22;54699;51.796;10.956;2023-04-03T02:18:37;17.50;52.20
67899;DHT22;54699;51.796;10.956;2023-04-03T02:21:04;17.50;52.20
67899;DHT22;54699;51.796;10.956;2023-04-03T02:23:33;17.50;52.20
67899;DHT22;54699;51.796;10.956;2023-04-03T02:26:05;17.50;52.20
67899;DHT22;54699;51.796;10.956;2023-04-03T02:28:33;17.50;52.20
67899;DHT22;54699;51.796;10.956;2023-04-03T02:31:01;17.50;52.10
67899;DHT22;54699;51.796;10.956;2023-04-03T02:33:28;17.50;52.10
67899;DHT22;54699;51.796;10.956;2023-04-03T02:35:55;17.50;52.10
67899;DHT22;54699;51.796;10.956;2023-04-03T02:38:23;17.50;52.20
67899;DHT22;54699;51.796;10.956;2023-04-03T02:40:52;17.50;52.20
67899;DHT22;54699;51.796;10.956;2023-04-03T02:43:19;17.50;52.10
67899;DHT22;54699;51.796;10.956;2023-04-03T02:45:46;17.50;52.10
67899;DHT22;54699;51.796;10.956;2023-04-03T02:48:13;17.50;52.10
67899;DHT22;54699;51.796;10.956;2023-04-03T02:50:40;17.50;52.30
67899;DHT22;54699;51.796;10.956;2023-04-03T02:53:07;17.40;52.00
67899;DHT22;54699;51.796;10.956;2023-04-03T02:55:34;17.40;52.10
67899;DHT22;54699;51.796;10.956;2023-04-03T02:58:02;17.50;52.10
67899;DHT22;54699;51.796;10.956;2023-04-03T03:00:29;17.40;52.10
67899;DHT22;54699;51.796;10.956;2023-04-03T03:02:59;17.40;52.00
67899;DHT22;54699;51.796;10.956;2023-04-03T03:05:26;17.40;52.00
67899;DHT22;54699;51.796;10.956;2023-04-03T03:07:53;17.40;52.00
67899;DHT22;54699;51.796;10.956;2023-04-03T03:10:21;17.40;52.00
67899;DHT22;54699;51.796;10.956;2023-04-03T03:12:48;17.40;52.00
67899;DHT22;54699;51.796;10.956;2023-04-03T03:15:16;17.40;52.00
67899;DHT22;54699;51.796;10.956;2023-04-03T03:17:44;17.40;52.00
67899;DHT22;54699;51.796;10.956;2023-04-03T03:20:12;17.40;52.00
67899;DHT22;54699;51.796;10.956;2023-04-03T03:22:40;17.40;52.00
67899;DHT22;54699;51.796;10.956;2023-04-03T03:25:07;17.40;51.90
67899;DHT22;54699;51.796;10.956;2023-04-03T03:27:35;17.40;51.90
67899;DHT22;54699;51.796;10.956;2023-04-03T03:30:02;17.40;52.00
67899;DHT22;54699;51.796;10.956;2023-04-03T03:32:31;17.40;51.90
67899;DHT22;54699;51.796;10.956;2023-04-03T03:34:58;17.40;51.90
67899;DHT22;54699;51.796;10.956;2023-04-03T03:37:25;17.40;51.90
67899;DHT22;54699;51.796;10.956;2023-04-03T03:39:52;17.40;52.00
67899;DHT22;54699;51.796;10.956;2023-04-03T03:42:18;17.40;52.80
67899;DHT22;54699;51.796;10.956;2023-04-03T03:44:45;17.40;51.90
67899;DHT22;54699;51.796;10.956;2023-04-03T03:47:12;17.40;52.00
67899;DHT22;54699;51.796;10.956;2023-04-03T03:49:40;17.40;51.90
67899;DHT22;54699;51.796;10.956;2023-04-03T03:52:07;17.40;51.80
67899;DHT22;54699;51.796;10.956;2023-04-03T03:54:36;17.40;51.90
67899;DHT22;54699;51.796;10.956;2023-04-03T03:57:02;17.30;51.80
67899;DHT22;54699;51.796;10.956;2023-04-03T03:59:29;17.40;51.80
67899;DHT22;54699;51.796;10.956;2023-04-03T04:01:56;17.40;52.00
67899;DHT22;54699;51.796;10.956;2023-04-03T04:04:23;17.40;51.80
67899;DHT22;54699;51.796;10.956;2023-04-03T04:06:51;17.30;51.80
67899;DHT22;54699;51.796;10.956;2023-04-03T04:09:18;17.30;51.70
67899;DHT22;54699;51.796;10.956;2023-04-03T04:11:45;17.30;51.80
67899;DHT22;54699;51.796;10.956;2023-04-03T04:14:12;17.30;51.80
67899;DHT22;54699;51.796;10.956;2023-04-03T04:16:38;17.30;51.80
67899;DHT22;54699;51.796;10.956;2023-04-03T04:19:05;17.30;51.80
67899;DHT22;54699;51.796;10.956;2023-04-03T04:21:32;17.30;51.80
67899;DHT22;54699;51.796;10.956;2023-04-03T04:24:03;17.30;51.80
67899;DHT22;54699;51.796;10.956;2023-04-03T04:26:31;17.30;51.70
67899;DHT22;54699;51.796;10.956;2023-04-03T04:28:58;17.30;51.80
67899;DHT22;54699;51.796;10.956;2023-04-03T04:31:25;17.30;51.80
67899;DHT22;54699;51.796;10.956;2023-04-03T04:33:52;17.30;51.70
67899;DHT22;54699;51.796;10.956;2023-04-03T04:36:19;17.30;51.70
67899;DHT22;54699;51.796;10.956;2023-04-03T04:38:46;17.20;51.70
67899;DHT22;54699;51.796;10.956;2023-04-03T04:41:14;17.20;51.50
67899;DHT22;54699;51.796;10.956;2023-04-03T04:43:41;17.30;51.60
67899;DHT22;54699;51.796;10.956;2023-04-03T04:46:08;17.30;51.70
67899;DHT22;54699;51.796;10.956;2023-04-03T04:48:36;17.20;51.50
67899;DHT22;54699;51.796;10.956;2023-04-03T04:51:04;17.20;51.50
67899;DHT22;54699;51.796;10.956;2023-04-03T04:53:33;17.20;51.50
67899;DHT22;54699;51.796;10.956;2023-04-03T04:56:00;17.20;52.40
67899;DHT22;54699;51.796;10.956;2023-04-03T04:58:28;17.20;51.40
67899;DHT22;54699;51.796;10.956;2023-04-03T05:00:58;17.30;51.50
67899;DHT22;54699;51.796;10.956;2023-04-03T05:03:25;17.30;51.40
67899;DHT22;54699;51.796;10.956;2023-04-03T05:05:53;17.20;51.30
67899;DHT22;54699;51.796;10.956;2023-04-03T05:08:20;17.20;51.30
67899;DHT22;54699;51.796;10.956;2023-04-03T05:10:47;17.20;51.20
67899;DHT22;54699;51.796;10.956;2023-04-03T05:13:14;17.30;51.30
67899;DHT22;54699;51.796;10.956;2023-04-03T05:15:43;17.20;51.20
67899;DHT22;54699;51.796;10.956;2023-04-03T05:18:10;17.20;51.20
67899;DHT22;54699;51.796;10.956;2023-04-03T05:20:37;17.20;51.10
67899;DHT22;54699;51.796;10.956;2023-04-03T05:23:04;17.30;51.20
67899;DHT22;54699;51.796;10.956;2023-04-03T05:25:31;17.20;51.00
67899;DHT22;54699;51.796;10.956;2023-04-03T05:27:58;17.30;51.00
67899;DHT22;54699;51.796;10.956;2023-04-03T05:30:25;17.30;51.10
67899;DHT22;54699;51.796;10.956;2023-04-03T05:32:53;17.20;51.10
67899;DHT22;54699;51.796;10.956;2023-04-03T05:35:20;17.20;52.00
67899;DHT22;54699;51.796;10.956;2023-04-03T05:37:48;17.20;51.00
67899;DHT22;54699;51.796;10.956;2023-04-03T05:40:15;17.20;51.00
67899;DHT22;54699;51.796;10.956;2023-04-03T05:42:43;17.20;50.80
67899;DHT22;54699;51.796;10.956;2023-04-03T05:45:10;17.20;50.70
67899;DHT22;54699;51.796;10.956;2023-04-03T05:47:37;17.20;50.70
67899;DHT22;54699;51.796;10.956;2023-04-03T05:50:06;17.20;50.70
67899;DHT22;54699;51.796;10.956;2023-04-03T05:52:35;17.20;50.60
67899;DHT22;54699;51.796;10.956;2023-04-03T05:55:04;17.20;50.60
67899;DHT22;54699;51.796;10.956;2023-04-03T05:57:32;17.20;50.60
67899;DHT22;54699;51.796;10.956;2023-04-03T05:59:59;17.20;50.50
67899;DHT22;54699;51.796;10.956;2023-04-03T06:02:26;17.20;50.50
67899;DHT22;54699;51.796;10.956;2023-04-03T06:04:53;17.20;50.50
67899;DHT22;54699;51.796;10.956;2023-04-03T06:07:22;17.20;50.40
67899;DHT22;54699;51.796;10.956;2023-04-03T06:09:53;17.10;50.50
67899;DHT22;54699;51.796;10.956;2023-04-03T06:12:22;17.20;50.60
67899;DHT22;54699;51.796;10.956;2023-04-03T06:14:49;17.20;50.40
67899;DHT22;54699;51.796;10.956;2023-04-03T06:17:16;17.20;50.50
67899;DHT22;54699;51.796;10.956;2023-04-03T06:19:46;17.20;50.40
67899;DHT22;54699;51.796;10.956;2023-04-03T06:22:13;17.20;50.10
67899;DHT22;54699;51.796;10.956;2023-04-03T06:24:42;17.20;50.10
67899;DHT22;54699;51.796;10.956;2023-04-03T06:27:09;17.20;50.10
67899;DHT22;54699;51.796;10.956;2023-04-03T06:29:37;17.20;50.10
67899;DHT22;54699;51.796;10.956;2023-04-03T06:32:07;17.20;50.10
67899;DHT22;54699;51.796;10.956;2023-04-03T06:34:34;17.20;50.10
67899;DHT22;54699;51.796;10.956;2023-04-03T06:37:01;17.30;50.10
67899;DHT22;54699;51.796;10.956;2023-04-03T06:39:28;17.20;50.00
67899;DHT22;54699;51.796;10.956;2023-04-03T06:41:56;17.30;50.10
67899;DHT22;54699;51.796;10.956;2023-04-03T06:44:23;17.20;50.00
67899;DHT22;54699;51.796;10.956;2023-04-03T06:46:50;17.20;50.00
67899;DHT22;54699;51.796;10.956;2023-04-03T06:49:19;17.20;50.00
67899;DHT22;54699;51.796;10.956;2023-04-03T06:51:46;17.30;50.00
67899;DHT22;54699;51.796;10.956;2023-04-03T06:54:13;17.20;50.00
67899;DHT22;54699;51.796;10.956;2023-04-03T06:56:40;17.20;50.00
67899;DHT22;54699;51.796;10.956;2023-04-03T06:59:10;17.30;50.00
67899;DHT22;54699;51.796;10.956;2023-04-03T07:01:38;17.30;50.00
67899;DHT22;54699;51.796;10.956;2023-04-03T07:04:06;17.20;50.00
67899;DHT22;54699;51.796;10.956;2023-04-03T07:06:32;17.30;50.00
67899;DHT22;54699;51.796;10.956;2023-04-03T07:09:00;17.20;50.00
67899;DHT22;54699;51.796;10.956;2023-04-03T07:11:28;17.20;50.00
67899;DHT22;54699;51.796;10.956;2023-04-03T07:13:54;17.30;50.00
67899;DHT22;54699;51.796;10.956;2023-04-03T07:16:23;17.30;50.10
67899;DHT22;54699;51.796;10.956;2023-04-03T07:18:50;17.30;49.90
67899;DHT22;54699;51.796;10.956;2023-04-03T07:21:16;17.30;49.90
67899;DHT22;54699;51.796;10.956;2023-04-03T07:23:43;17.30;49.90
67899;DHT22;54699;51.796;10.956;2023-04-03T07:26:10;17.30;49.90
67899;DHT22;54699;51.796;10.956;2023-04-03T07:28:37;17.30;49.90
67899;DHT22;54699;51.796;10.956;2023-04-03T07:31:06;17.30;49.90
67899;DHT22;54699;51.796;10.956;2023-04-03T07:33:39;17.30;49.90
67899;DHT22;54699;51.796;10.956;2023-04-03T07:36:07;17.30;49.90
67899;DHT22;54699;51.796;10.956;2023-04-03T07:38:34;17.30;49.90
67899;DHT22;54699;51.796;10.956;2023-04-03T07:41:02;17.30;49.90
67899;DHT22;54699;51.796;10.956;2023-04-03T07:43:30;17.40;49.90
67899;DHT22;54699;51.796;10.956;2023-04-03T07:45:57;17.30;49.80
67899;DHT22;54699;51.796;10.956;2023-04-03T07:48:24;17.40;50.00
67899;DHT22;54699;51.796;10.956;2023-04-03T07:50:58;17.40;49.90
67899;DHT22;54699;51.796;10.956;2023-04-03T07:53:25;17.40;49.90
67899;DHT22;54699;51.796;10.956;2023-04-03T07:55:52;17.40;49.90
67899;DHT22;54699;51.796;10.956;2023-04-03T07:58:21;17.40;49.80
67899;DHT22;54699;51.796;10.956;2023-04-03T08:00:48;17.40;49.80
67899;DHT22;54699;51.796;10.956;2023-04-03T08:03:15;17.40;49.70
67899;DHT22;54699;51.796;10.956;2023-04-03T08:05:43;17.40;49.70
67899;DHT22;54699;51.796;10.956;2023-04-03T08:08:13;17.40;49.80
67899;DHT22;54699;51.796;10.956;2023-04-03T08:10:41;17.40;49.70
67899;DHT22;54699;51.796;10.956;2023-04-03T08:13:09;17.40;49.60
67899;DHT22;54699;51.796;10.956;2023-04-03T08:15:36;17.40;49.60
67899;DHT22;54699;51.796;10.956;2023-04-03T08:18:03;17.40;49.80
67899;DHT22;54699;51.796;10.956;2023-04-03T08:20:31;17.40;49.80
67899;DHT22;54699;51.796;10.956;2023-04-03T08:22:57;17.40;49.80
67899;DHT22;54699;51.796;10.956;2023-04-03T08:25:26;17.40;49.90
67899;DHT22;54699;51.796;10.956;2023-04-03T08:27:54;17.50;50.20
67899;DHT22;54699;51.796;10.956;2023-04-03T08:30:21;17.50;50.20
67899;DHT22;54699;51.796;10.956;2023-04-03T08:32:48;17.50;50.20
67899;DHT22;54699;51.796;10.956;2023-04-03T08:35:15;17.50;50.20
67899;DHT22;54699;51.796;10.956;2023-04-03T08:37:42;17.50;50.10
67899;DHT22;54699;51.796;10.956;2023-04-03T08:40:12;17.50;50.20
67899;DHT22;54699;51.796;10.956;2023-04-03T08:42:46;17.50;50.40
67899;DHT22;54699;51.796;10.956;2023-04-03T08:45:25;17.50;51.40
67899;DHT22;54699;51.796;10.956;2023-04-03T08:48:00;17.60;50.10
67899;DHT22;54699;51.796;10.956;2023-04-03T08:50:31;17.60;50.20
67899;DHT22;54699;51.796;10.956;2023-04-03T08:53:05;17.60;50.20
67899;DHT22;54699;51.796;10.956;2023-04-03T08:55:46;17.60;50.50
67899;DHT22;54699;51.796;10.956;2023-04-03T08:58:17;17.60;50.50
67899;DHT22;54699;51.796;10.956;2023-04-03T09:00:46;17.60;50.40
67899;DHT22;54699;51.796;10.956;2023-04-03T09:03:17;17.60;50.50
67899;DHT22;54699;51.796;10.956;2023-04-03T09:05:47;17.60;50.40
67899;DHT22;54699;51.796;10.956;2023-04-03T09:08:21;17.60;50.30
67899;DHT22;54699;51.796;10.956;2023-04-03T09:10:56;17.60;50.30
67899;DHT22;54699;51.796;10.956;2023-04-03T09:13:34;17.70;50.00
67899;DHT22;54699;51.796;10.956;2023-04-03T09:16:14;17.70;50.00
67899;DHT22;54699;51.796;10.956;2023-04-03T09:18:52;17.70;50.30
67899;DHT22;54699;51.796;10.956;2023-04-03T09:21:30;17.70;50.30
67899;DHT22;54699;51.796;10.956;2023-04-03T09:24:03;17.70;50.40
67899;DHT22;54699;51.796;10.956;2023-04-03T09:26:33;17.80;50.10
67899;DHT22;54699;51.796;10.956;2023-04-03T09:29:07;17.80;50.30
67899;DHT22;54699;51.796;10.956;2023-04-03T09:31:36;17.70;50.40
67899;DHT22;54699;51.796;10.956;2023-04-03T09:34:06;17.70;50.20
67899;DHT22;54699;51.796;10.956;2023-04-03T09:36:40;17.80;50.20
67899;DHT22;54699;51.796;10.956;2023-04-03T09:39:11;17.80;50.40
67899;DHT22;54699;51.796;10.956;2023-04-03T09:41:39;17.80;50.40
67899;DHT22;54699;51.796;10.956;2023-04-03T09:46:51;17.80;50.30
67899;DHT22;54699;51.796;10.956;2023-04-03T09:49:18;17.80;50.40
67899;DHT22;54699;51.796;10.956;2023-04-03T09:51:46;17.80;50.50
67899;DHT22;54699;51.796;10.956;2023-04-03T09:54:24;17.80;50.60
67899;DHT22;54699;51.796;10.956;2023-04-03T09:57:05;17.80;50.50
67899;DHT22;54699;51.796;10.956;2023-04-03T09:59:37;17.80;50.30
67899;DHT22;54699;51.796;10.956;2023-04-03T10:02:18;17.80;50.50
67899;DHT22;54699;51.796;10.956;2023-04-03T10:04:49;17.80;50.30
67899;DHT22;54699;51.796;10.956;2023-04-03T10:07:26;17.90;50.50
67899;DHT22;54699;51.796;10.956;2023-04-03T10:09:59;17.80;50.30
67899;DHT22;54699;51.796;10.956;2023-04-03T10:12:28;17.80;50.30
67899;DHT22;54699;51.796;10.956;2023-04-03T10:14:57;17.80;50.50
67899;DHT22;54699;51.796;10.956;2023-04-03T10:17:29;17.80;50.60
67899;DHT22;54699;51.796;10.956;2023-04-03T10:20:07;17.80;50.20
67899;DHT22;54699;51.796;10.956;2023-04-03T10:22:50;17.90;50.70
67899;DHT22;54699;51.796;10.956;2023-04-03T10:25:30;17.90;50.80
67899;DHT22;54699;51.796;10.956;2023-04-03T10:28:07;17.90;51.00
67899;DHT22;54699;51.796;10.956;2023-04-03T10:30:46;17.90;50.90
67899;DHT22;54699;51.796;10.956;2023-04-03T10:33:23;17.90;51.00
67899;DHT22;54699;51.796;10.956;2023-04-03T10:36:18;17.90;50.90
67899;DHT22;54699;51.796;10.956;2023-04-03T10:38:54;17.90;51.10
67899;DHT22;54699;51.796;10.956;2023-04-03T10:41:29;17.90;51.40
67899;DHT22;54699;51.796;10.956;2023-04-03T10:44:09;17.90;51.40
67899;DHT22;54699;51.796;10.956;2023-04-03T10:46:45;17.90;51.30
67899;DHT22;54699;51.796;10.956;2023-04-03T10:49:21;17.90;51.20
67899;DHT22;54699;51.796;10.956;2023-04-03T10:51:58;17.90;51.20
67899;DHT22;54699;51.796;10.956;2023-04-03T10:54:33;17.90;51.20
67899;DHT22;54699;51.796;10.956;2023-04-03T10:57:05;17.90;51.10
67899;DHT22;54699;51.796;10.956;2023-04-03T10:59:35;17.90;51.00
67899;DHT22;54699;51.796;10.956;2023-04-03T11:02:07;17.90;51.10
67899;DHT22;54699;51.796;10.956;2023-04-03T11:04:44;17.90;51.00
67899;DHT22;54699;51.796;10.956;2023-04-03T11:07:18;17.90;51.10
67899;DHT22;54699;51.796;10.956;2023-04-03T11:09:49;17.90;50.80
67899;DHT22;54699;51.796;10.956;2023-04-03T11:12:21;17.90;50.80
67899;DHT22;54699;51.796;10.956;2023-04-03T11:14:52;17.90;51.00
67899;DHT22;54699;51.796;10.956;2023-04-03T11:17:26;17.90;51.00
67899;DHT22;54699;51.796;10.956;2023-04-03T11:20:00;18.00;50.90
67899;DHT22;54699;51.796;10.956;2023-04-03T11:22:33;18.00;50.30
67899;DHT22;54699;51.796;10.956;2023-04-03T11:25:04;18.00;50.90
67899;DHT22;54699;51.796;10.956;2023-04-03T11:27:46;18.00;50.90
67899;DHT22;54699;51.796;10.956;2023-04-03T11:30:17;18.00;51.00
67899;DHT22;54699;51.796;10.956;2023-04-03T11:32:51;17.90;50.90
67899;DHT22;54699;51.796;10.956;2023-04-03T11:35:28;18.00;51.00
67899;DHT22;54699;51.796;10.956;2023-04-03T11:37:56;18.00;51.00
67899;DHT22;54699;51.796;10.956;2023-04-03T11:40:28;18.00;50.90
67899;DHT22;54699;51.796;10.956;2023-04-03T11:43:02;18.00;50.80
67899;DHT22;54699;51.796;10.956;2023-04-03T11:45:37;18.00;51.00
67899;DHT22;54699;51.796;10.956;2023-04-03T12:12:57;18.00;50.70
67899;DHT22;54699;51.796;10.956;2023-04-03T12:24:33;18.10;51.30
67899;DHT22;54699;51.796;10.956;2023-04-03T12:27:04;18.10;51.30
67899;DHT22;54699;51.796;10.956;2023-04-03T12:29:50;18.10;50.90
67899;DHT22;54699;51.796;10.956;2023-04-03T12:32:36;18.10;50.70
67899;DHT22;54699;51.796;10.956;2023-04-03T12:35:23;18.10;50.00
67899;DHT22;54699;51.796;10.956;2023-04-03T12:37:59;18.20;49.80
67899;DHT22;54699;51.796;10.956;2023-04-03T12:40:46;18.20;50.00
67899;DHT22;54699;51.796;10.956;2023-04-03T12:43:23;18.20;48.30
67899;DHT22;54699;51.796;10.956;2023-04-03T12:46:02;18.20;49.20
67899;DHT22;54699;51.796;10.956;2023-04-03T12:48:31;18.20;49.60
67899;DHT22;54699;51.796;10.956;2023-04-03T12:51:03;18.10;48.00
67899;DHT22;54699;51.796;10.956;2023-04-03T12:53:32;18.20;47.10
67899;DHT22;54699;51.796;10.956;2023-04-03T12:58:49;18.20;50.70
67899;DHT22;54699;51.796;10.956;2023-04-03T13:01:18;18.20;50.80
67899;DHT22;54699;51.796;10.956;2023-04-03T13:03:48;18.20;51.90
67899;DHT22;54699;51.796;10.956;2023-04-03T13:06:19;18.20;48.40
67899;DHT22;54699;51.796;10.956;2023-04-03T13:08:48;18.20;46.00
67899;DHT22;54699;51.796;10.956;2023-04-03T13:11:16;18.20;46.10
67899;DHT22;54699;51.796;10.956;2023-04-03T13:14:00;18.20;46.70
67899;DHT22;54699;51.796;10.956;2023-04-03T13:16:30;18.20;50.80
67899;DHT22;54699;51.796;10.956;2023-04-03T13:18:58;18.20;47.00
67899;DHT22;54699;51.796;10.956;2023-04-03T13:21:26;18.30;46.20
67899;DHT22;54699;51.796;10.956;2023-04-03T13:23:55;18.30;46.90
67899;DHT22;54699;51.796;10.956;2023-04-03T13:26:24;18.30;45.20
67899;DHT22;54699;51.796;10.956;2023-04-03T13:28:54;18.30;48.30
67899;DHT22;54699;51.796;10.956;2023-04-03T13:31:26;18.30;45.10
67899;DHT22;54699;51.796;10.956;2023-04-03T13:33:57;18.30;47.60
67899;DHT22;54699;51.796;10.956;2023-04-03T13:36:29;18.30;46.30
67899;DHT22;54699;51.796;10.956;2023-04-03T13:38:59;18.40;46.20
67899;DHT22;54699;51.796;10.956;2023-04-03T13:41:33;18.40;46.90
67899;DHT22;54699;51.796;10.956;2023-04-03T13:46:58;18.40;46.10
67899;DHT22;54699;51.796;10.956;2023-04-03T13:49:31;18.40;46.20
67899;DHT22;54699;51.796;10.956;2023-04-03T13:52:02;18.40;46.20
67899;DHT22;54699;51.796;10.956;2023-04-03T13:54:47;18.40;45.80
67899;DHT22;54699;51.796;10.956;2023-04-03T13:57:19;18.40;47.10
67899;DHT22;54699;51.796;10.956;2023-04-03T13:59:47;18.40;45.80
67899;DHT22;54699;51.796;10.956;2023-04-03T14:02:18;18.40;44.10
67899;DHT22;54699;51.796;10.956;2023-04-03T14:04:50;18.40;44.10
67899;DHT22;54699;51.796;10.956;2023-04-03T14:07:21;18.40;43.20
67899;DHT22;54699;51.796;10.956;2023-04-03T14:09:49;18.40;43.50
67899;DHT22;54699;51.796;10.956;2023-04-03T14:12:17;18.40;43.30
67899;DHT22;54699;51.796;10.956;2023-04-03T14:14:48;18.40;43.10
67899;DHT22;54699;51.796;10.956;2023-04-03T14:17:17;18.40;48.60
67899;DHT22;54699;51.796;10.956;2023-04-03T14:19:46;18.40;47.50
67899;DHT22;54699;51.796;10.956;2023-04-03T14:22:15;18.40;49.20
67899;DHT22;54699;51.796;10.956;2023-04-03T14:24:43;18.40;48.50
67899;DHT22;54699;51.796;10.956;2023-04-03T14:27:15;18.40;47.00
67899;DHT22;54699;51.796;10.956;2023-04-03T14:29:44;18.40;44.10
67899;DHT22;54699;51.796;10.956;2023-04-03T14:32:12;18.40;44.80
67899;DHT22;54699;51.796;10.956;2023-04-03T14:34:41;18.40;43.90
67899;DHT22;54699;51.796;10.956;2023-04-03T14:37:10;18.40;46.00
67899;DHT22;54699;51.796;10.956;2023-04-03T14:39:39;18.40;49.60
67899;DHT22;54699;51.796;10.956;2023-04-03T14:42:09;18.40;49.40
67899;DHT22;54699;51.796;10.956;2023-04-03T14:44:44;18.40;50.60
67899;DHT22;54699;51.796;10.956;2023-04-03T14:47:11;18.30;47.50
67899;DHT22;54699;51.796;10.956;2023-04-03T14:49:41;18.30;46.70
67899;DHT22;54699;51.796;10.956;2023-04-03T14:52:11;18.30;46.60
67899;DHT22;54699;51.796;10.956;2023-04-03T14:54:44;18.30;48.50
67899;DHT22;54699;51.796;10.956;2023-04-03T14:57:11;18.30;48.00
67899;DHT22;54699;51.796;10.956;2023-04-03T14:59:40;18.30;46.00
67899;DHT22;54699;51.796;10.956;2023-04-03T15:02:11;18.30;47.40
67899;DHT22;54699;51.796;10.956;2023-04-03T15:04:53;18.30;47.10
67899;DHT22;54699;51.796;10.956;2023-04-03T15:07:20;18.30;46.40
67899;DHT22;54699;51.796;10.956;2023-04-03T15:09:47;18.40;47.30
67899;DHT22;54699;51.796;10.956;2023-04-03T15:12:14;18.40;47.40
67899;DHT22;54699;51.796;10.956;2023-04-03T15:14:41;18.40;46.10
67899;DHT22;54699;51.796;10.956;2023-04-03T15:17:10;18.40;46.50
67899;DHT22;54699;51.796;10.956;2023-04-03T15:19:42;18.30;47.90
67899;DHT22;54699;51.796;10.956;2023-04-03T15:22:11;18.30;46.60
67899;DHT22;54699;51.796;10.956;2023-04-03T15:24:40;18.30;49.40
67899;DHT22;54699;51.796;10.956;2023-04-03T15:27:07;18.30;48.90
67899;DHT22;54699;51.796;10.956;2023-04-03T15:29:35;18.30;48.70
67899;DHT22;54699;51.796;10.956;2023-04-03T15:32:02;18.30;45.30
67899;DHT22;54699;51.796;10.956;2023-04-03T15:34:29;18.40;46.50
67899;DHT22;54699;51.796;10.956;2023-04-03T15:36:56;18.40;45.20
67899;DHT22;54699;51.796;10.956;2023-04-03T15:39:25;18.40;45.60
67899;DHT22;54699;51.796;10.956;2023-04-03T15:41:52;18.40;48.90
67899;DHT22;54699;51.796;10.956;2023-04-03T15:44:20;18.40;48.80
67899;DHT22;54699;51.796;10.956;2023-04-03T15:46:47;18.30;48.90
67899;DHT22;54699;51.796;10.956;2023-04-03T15:49:16;18.30;49.60
67899;DHT22;54699;51.796;10.956;2023-04-03T15:51:43;18.30;49.60
67899;DHT22;54699;51.796;10.956;2023-04-03T15:54:10;18.30;49.40
67899;DHT22;54699;51.796;10.956;2023-04-03T15:56:39;18.30;47.70
67899;DHT22;54699;51.796;10.956;2023-04-03T15:59:06;18.30;48.20
67899;DHT22;54699;51.796;10.956;2023-04-03T16:01:33;18.30;46.00
67899;DHT22;54699;51.796;10.956;2023-04-03T16:04:00;18.30;49.30
67899;DHT22;54699;51.796;10.956;2023-04-03T16:06:27;18.30;46.70
67899;DHT22;54699;51.796;10.956;2023-04-03T16:08:57;18.30;49.40
67899;DHT22;54699;51.796;10.956;2023-04-03T16:11:24;18.30;49.50